This is the latest recevied weather packets stored in our database for station/object W5ADC. If no packets are shown the sender has not sent any weather packets the latest 1 day(s).
| Time | Temp. | Humidity | Pressure | Rain* | Wind** | Luminosity | Snow |
|---|---|---|---|---|---|---|---|
| 1778087246 | 11.67° C | 99% | 1010.5 hPa | 0 mm | - | 90 W/m² | - |
| 1778084517 | 11.11° C | 99% | 1011.9 hPa | 0 mm | - | 155 W/m² | - |
| 1778084214 | 11.11° C | 99% | 1011.5 hPa | 0 mm | - | 212 W/m² | - |
| 1778083004 | 11.67° C | 97% | 1009.7 hPa | 0 mm | - | 237 W/m² | - |
| 1778082700 | 11.67° C | 92% | 1012.2 hPa | 7.87 mm | - | 40 W/m² | - |
| 1778080957 | 12.22° C | 85% | 1012.2 hPa | 0 mm | - | 18 W/m² | - |
| 1778080656 | 12.22° C | 84% | 1012.2 hPa | 0 mm | - | 15 W/m² | - |
| 1778080048 | 12.22° C | 83% | 1011 hPa | 0 mm | - | 70 W/m² | - |
| 1778079139 | 12.22° C | 83% | 1011.3 hPa | 0 mm | - | 71 W/m² | - |
| 1778078231 | 12.22° C | 84% | 1011.1 hPa | 0 mm | - | 94 W/m² | - |
| 1778077627 | 12.22° C | 85% | 1011 hPa | 0 mm | - | 45 W/m² | - |
| 1778076720 | 12.22° C | 85% | 1010.3 hPa | 0 mm | - | 62 W/m² | - |
| 1778075508 | 11.67° C | 86% | 1010.3 hPa | 0 mm | - | 56 W/m² | - |
| 1778075204 | 11.67° C | 86% | 1010.1 hPa | 0 mm | - | 55 W/m² | - |
| 1778074900 | 11.67° C | 87% | 1010.1 hPa | 0 mm | - | 44 W/m² | - |
| 1778073992 | 11.67° C | 87% | 1010.2 hPa | 0 mm | - | 25 W/m² | - |
| 1778073386 | 11.67° C | 86% | 1009.5 hPa | 0 mm | - | 36 W/m² | - |
| 1778073082 | 11.67° C | 86% | 1009.6 hPa | 0 mm | - | 28 W/m² | - |
| 1778072175 | 11.67° C | 85% | 1009.8 hPa | 0 mm | - | 27 W/m² | - |
| 1778071872 | 11.67° C | 85% | 1009.4 hPa | 0 mm | - | 25 W/m² | - |
| 1778070663 | 11.67° C | 85% | 1009.3 hPa | 0 mm | - | 17 W/m² | - |
| 1778069755 | 11.67° C | 84% | 1009.1 hPa | 0 mm | - | 8 W/m² | - |
| 1778068846 | 11.67° C | 84% | 1009.2 hPa | 0 mm | - | 5 W/m² | - |
| 1778068544 | 12.22° C | 84% | 1009.1 hPa | 0 mm | - | 4 W/m² | - |
| 1778066426 | 12.78° C | 81% | 1008.5 hPa | 0 mm | - | 0 W/m² | - |
* Rain latest hour (hover to see other rain measurements)
** Current wind speed in m/s (hover to see current wind gust speed)